<?xml version="1.0" encoding="UTF-8" standalone="no" ?>
<gpx xmlns="http://www.topografix.com/GPX/1/1" xmlns:xsi="http://www.w3.org/2001/XMLSchema-instance" xsi:schemaLocation="http://www.topografix.com/GPX/1/1 http://www.topografix.com/GPX/1/1/gpx.xsd" version="1.1" creator="VisuGPX - https://www.visugpx.com">
  <metadata>
    <name>Lances de Malissard - Circuit de Bellefond</name>
    <desc><![CDATA[Lances de Malissard - Circuit de Bellefond]]></desc>
  </metadata>
  <trk>
    <name><![CDATA[Move]]></name>
    <trkseg>
      <trkpt lat="45.33038" lon="5.84886">
        <ele>771.2293528424</ele>
        <time>2015-02-15T09:40:04.340Z</time>
      </trkpt>
      <trkpt lat="45.32997" lon="5.84817">
        <ele>783</ele>
        <time>2015-02-15T09:41:05.100Z</time>
      </trkpt>
      <trkpt lat="45.33017" lon="5.8491">
        <ele>795</ele>
        <time>2015-02-15T09:42:05.980Z</time>
      </trkpt>
      <trkpt lat="45.33036" lon="5.85012">
        <ele>806</ele>
        <time>2015-02-15T09:43:06.880Z</time>
      </trkpt>
      <trkpt lat="45.33058" lon="5.8511">
        <ele>818</ele>
        <time>2015-02-15T09:44:06.980Z</time>
      </trkpt>
      <trkpt lat="45.33073" lon="5.85216">
        <ele>825</ele>
        <time>2015-02-15T09:45:07.100Z</time>
      </trkpt>
      <trkpt lat="45.33061" lon="5.85349">
        <ele>824</ele>
        <time>2015-02-15T09:46:07.100Z</time>
      </trkpt>
      <trkpt lat="45.33089" lon="5.85421">
        <ele>837</ele>
        <time>2015-02-15T09:47:07.980Z</time>
      </trkpt>
      <trkpt lat="45.33129" lon="5.85479">
        <ele>850</ele>
        <time>2015-02-15T09:48:07.980Z</time>
      </trkpt>
      <trkpt lat="45.33193" lon="5.85511">
        <ele>862</ele>
        <time>2015-02-15T09:49:08.880Z</time>
      </trkpt>
      <trkpt lat="45.33202" lon="5.85526">
        <ele>863</ele>
        <time>2015-02-15T09:50:08.960Z</time>
      </trkpt>
      <trkpt lat="45.33225" lon="5.85552">
        <ele>867</ele>
        <time>2015-02-15T09:51:08.980Z</time>
      </trkpt>
      <trkpt lat="45.33262" lon="5.856">
        <ele>875</ele>
        <time>2015-02-15T09:52:08.980Z</time>
      </trkpt>
      <trkpt lat="45.33314" lon="5.85604">
        <ele>880</ele>
        <time>2015-02-15T09:53:06.480Z</time>
      </trkpt>
      <trkpt lat="45.33365" lon="5.85661">
        <ele>885</ele>
        <time>2015-02-15T09:54:03.460Z</time>
      </trkpt>
      <trkpt lat="45.33381" lon="5.85676">
        <ele>886</ele>
        <time>2015-02-15T09:55:08.480Z</time>
      </trkpt>
      <trkpt lat="45.33381" lon="5.85682">
        <ele>886</ele>
        <time>2015-02-15T09:56:02.380Z</time>
      </trkpt>
      <trkpt lat="45.33396" lon="5.85694">
        <ele>890</ele>
        <time>2015-02-15T09:57:00.100Z</time>
      </trkpt>
      <trkpt lat="45.33428" lon="5.8575">
        <ele>898</ele>
        <time>2015-02-15T09:58:01.480Z</time>
      </trkpt>
      <trkpt lat="45.33439" lon="5.85798">
        <ele>904</ele>
        <time>2015-02-15T09:59:01.480Z</time>
      </trkpt>
      <trkpt lat="45.33476" lon="5.85829">
        <ele>911</ele>
        <time>2015-02-15T09:59:58.100Z</time>
      </trkpt>
      <trkpt lat="45.33476" lon="5.85843">
        <ele>912</ele>
        <time>2015-02-15T10:01:03.480Z</time>
      </trkpt>
      <trkpt lat="45.3413" lon="5.85912">
        <ele>1026</ele>
        <time>2015-02-15T10:19:21.100Z</time>
      </trkpt>
      <trkpt lat="45.34145" lon="5.85905">
        <ele>1032</ele>
        <time>2015-02-15T10:20:17.230Z</time>
      </trkpt>
      <trkpt lat="45.34181" lon="5.85888">
        <ele>1042</ele>
        <time>2015-02-15T10:21:17.230Z</time>
      </trkpt>
      <trkpt lat="45.34238" lon="5.85857">
        <ele>1053</ele>
        <time>2015-02-15T10:22:20.500Z</time>
      </trkpt>
      <trkpt lat="45.34267" lon="5.8586">
        <ele>1066</ele>
        <time>2015-02-15T10:23:21.500Z</time>
      </trkpt>
      <trkpt lat="45.34314" lon="5.85872">
        <ele>1082</ele>
        <time>2015-02-15T10:24:20.500Z</time>
      </trkpt>
      <trkpt lat="45.34232" lon="5.85872">
        <ele>1065</ele>
        <time>2015-02-15T10:25:25.400Z</time>
      </trkpt>
      <trkpt lat="45.34274" lon="5.85869">
        <ele>1073.0600064</ele>
        <time>2015-02-15T10:26:19.150Z</time>
      </trkpt>
      <trkpt lat="45.34327" lon="5.85864">
        <ele>1083</ele>
        <time>2015-02-15T10:27:19.150Z</time>
      </trkpt>
      <trkpt lat="45.34354" lon="5.85896">
        <ele>1094</ele>
        <time>2015-02-15T10:28:17.150Z</time>
      </trkpt>
      <trkpt lat="45.34423" lon="5.85878">
        <ele>1105</ele>
        <time>2015-02-15T10:29:20.400Z</time>
      </trkpt>
      <trkpt lat="45.34447" lon="5.85868">
        <ele>1110</ele>
        <time>2015-02-15T10:30:17.100Z</time>
      </trkpt>
      <trkpt lat="45.34475" lon="5.85907">
        <ele>1116.7800064</ele>
        <time>2015-02-15T10:31:24.480Z</time>
      </trkpt>
      <trkpt lat="45.34471" lon="5.85853">
        <ele>1128</ele>
        <time>2015-02-15T10:32:19.160Z</time>
      </trkpt>
      <trkpt lat="45.34518" lon="5.85838">
        <ele>1141</ele>
        <time>2015-02-15T10:33:20.400Z</time>
      </trkpt>
      <trkpt lat="45.34542" lon="5.85816">
        <ele>1155</ele>
        <time>2015-02-15T10:34:17.150Z</time>
      </trkpt>
      <trkpt lat="45.34614" lon="5.85791">
        <ele>1169</ele>
        <time>2015-02-15T10:35:19.100Z</time>
      </trkpt>
      <trkpt lat="45.3468" lon="5.85787">
        <ele>1184</ele>
        <time>2015-02-15T10:36:19.000Z</time>
      </trkpt>
      <trkpt lat="45.347" lon="5.8578">
        <ele>1199</ele>
        <time>2015-02-15T10:37:16.960Z</time>
      </trkpt>
      <trkpt lat="45.34792" lon="5.85788">
        <ele>1216</ele>
        <time>2015-02-15T10:38:30.500Z</time>
      </trkpt>
      <trkpt lat="45.34617" lon="5.85804">
        <ele>1177.6200064</ele>
        <time>2015-02-15T10:39:20.400Z</time>
      </trkpt>
      <trkpt lat="45.34679" lon="5.85799">
        <ele>1189</ele>
        <time>2015-02-15T10:40:17.150Z</time>
      </trkpt>
      <trkpt lat="45.34748" lon="5.85765">
        <ele>1197</ele>
        <time>2015-02-15T10:41:18.170Z</time>
      </trkpt>
      <trkpt lat="45.34776" lon="5.85799">
        <ele>1212</ele>
        <time>2015-02-15T10:42:28.400Z</time>
      </trkpt>
      <trkpt lat="45.34819" lon="5.85791">
        <ele>1226</ele>
        <time>2015-02-15T10:43:23.500Z</time>
      </trkpt>
      <trkpt lat="45.34879" lon="5.85781">
        <ele>1239</ele>
        <time>2015-02-15T10:44:16.960Z</time>
      </trkpt>
      <trkpt lat="45.34862" lon="5.85846">
        <ele>1248</ele>
        <time>2015-02-15T10:45:16.980Z</time>
      </trkpt>
      <trkpt lat="45.34816" lon="5.85919">
        <ele>1252</ele>
        <time>2015-02-15T10:46:17.150Z</time>
      </trkpt>
      <trkpt lat="45.34751" lon="5.85939">
        <ele>1241</ele>
        <time>2015-02-15T10:47:23.400Z</time>
      </trkpt>
      <trkpt lat="45.34773" lon="5.8591">
        <ele>1241</ele>
        <time>2015-02-15T10:48:16.900Z</time>
      </trkpt>
      <trkpt lat="45.34678" lon="5.85973">
        <ele>1224.5</ele>
        <time>2015-02-15T10:49:29.600Z</time>
      </trkpt>
      <trkpt lat="45.3462" lon="5.86039">
        <ele>1223</ele>
        <time>2015-02-15T10:50:21.400Z</time>
      </trkpt>
      <trkpt lat="45.34626" lon="5.86145">
        <ele>1217</ele>
        <time>2015-02-15T10:51:20.000Z</time>
      </trkpt>
      <trkpt lat="45.34633" lon="5.86174">
        <ele>1216</ele>
        <time>2015-02-15T10:52:18.000Z</time>
      </trkpt>
      <trkpt lat="45.3465" lon="5.86277">
        <ele>1213</ele>
        <time>2015-02-15T10:53:23.600Z</time>
      </trkpt>
      <trkpt lat="45.34647" lon="5.86333">
        <ele>1213</ele>
        <time>2015-02-15T10:54:20.300Z</time>
      </trkpt>
      <trkpt lat="45.34659" lon="5.86335">
        <ele>1212</ele>
        <time>2015-02-15T10:55:17.150Z</time>
      </trkpt>
      <trkpt lat="45.34666" lon="5.86363">
        <ele>1212</ele>
        <time>2015-02-15T10:56:23.400Z</time>
      </trkpt>
      <trkpt lat="45.34668" lon="5.86372">
        <ele>1212</ele>
        <time>2015-02-15T10:57:23.500Z</time>
      </trkpt>
      <trkpt lat="45.34677" lon="5.86442">
        <ele>1217</ele>
        <time>2015-02-15T10:58:21.400Z</time>
      </trkpt>
      <trkpt lat="45.34673" lon="5.86442">
        <ele>1223</ele>
        <time>2015-02-15T10:59:17.170Z</time>
      </trkpt>
      <trkpt lat="45.3466" lon="5.86437">
        <ele>1222</ele>
        <time>2015-02-15T11:00:17.150Z</time>
      </trkpt>
      <trkpt lat="45.3461" lon="5.86491">
        <ele>1239</ele>
        <time>2015-02-15T11:15:29.970Z</time>
      </trkpt>
      <trkpt lat="45.34566" lon="5.865">
        <ele>1249</ele>
        <time>2015-02-15T11:16:29.970Z</time>
      </trkpt>
      <trkpt lat="45.34534" lon="5.86469">
        <ele>1257</ele>
        <time>2015-02-15T11:17:29.970Z</time>
      </trkpt>
      <trkpt lat="45.34502" lon="5.86445">
        <ele>1266</ele>
        <time>2015-02-15T11:18:29.970Z</time>
      </trkpt>
      <trkpt lat="45.34472" lon="5.86446">
        <ele>1277</ele>
        <time>2015-02-15T11:19:30.100Z</time>
      </trkpt>
      <trkpt lat="45.34449" lon="5.86459">
        <ele>1285</ele>
        <time>2015-02-15T11:20:30.970Z</time>
      </trkpt>
      <trkpt lat="45.34414" lon="5.86493">
        <ele>1293</ele>
        <time>2015-02-15T11:21:31.100Z</time>
      </trkpt>
      <trkpt lat="45.34406" lon="5.86524">
        <ele>1303</ele>
        <time>2015-02-15T11:22:31.970Z</time>
      </trkpt>
      <trkpt lat="45.34422" lon="5.86533">
        <ele>1309</ele>
        <time>2015-02-15T11:23:31.970Z</time>
      </trkpt>
      <trkpt lat="45.34431" lon="5.86545">
        <ele>1316</ele>
        <time>2015-02-15T11:24:31.970Z</time>
      </trkpt>
      <trkpt lat="45.34433" lon="5.8655">
        <ele>1317</ele>
        <time>2015-02-15T11:25:32.970Z</time>
      </trkpt>
      <trkpt lat="45.34422" lon="5.86571">
        <ele>1322</ele>
        <time>2015-02-15T11:26:32.970Z</time>
      </trkpt>
      <trkpt lat="45.34417" lon="5.86602">
        <ele>1330</ele>
        <time>2015-02-15T11:27:32.970Z</time>
      </trkpt>
      <trkpt lat="45.34414" lon="5.86603">
        <ele>1334</ele>
        <time>2015-02-15T11:28:32.960Z</time>
      </trkpt>
      <trkpt lat="45.34419" lon="5.86608">
        <ele>1338</ele>
        <time>2015-02-15T11:29:31.470Z</time>
      </trkpt>
      <trkpt lat="45.34416" lon="5.86621">
        <ele>1340</ele>
        <time>2015-02-15T11:30:31.100Z</time>
      </trkpt>
      <trkpt lat="45.34417" lon="5.86626">
        <ele>1341</ele>
        <time>2015-02-15T11:31:31.100Z</time>
      </trkpt>
      <trkpt lat="45.34418" lon="5.86631">
        <ele>1346</ele>
        <time>2015-02-15T11:32:32.460Z</time>
      </trkpt>
      <trkpt lat="45.34412" lon="5.86643">
        <ele>1349</ele>
        <time>2015-02-15T11:33:31.100Z</time>
      </trkpt>
      <trkpt lat="45.34409" lon="5.86671">
        <ele>1356</ele>
        <time>2015-02-15T11:34:31.100Z</time>
      </trkpt>
      <trkpt lat="45.34398" lon="5.86668">
        <ele>1359</ele>
        <time>2015-02-15T11:35:34.360Z</time>
      </trkpt>
      <trkpt lat="45.3438" lon="5.86715">
        <ele>1367</ele>
        <time>2015-02-15T11:36:31.100Z</time>
      </trkpt>
      <trkpt lat="45.34349" lon="5.8673">
        <ele>1372</ele>
        <time>2015-02-15T11:37:31.100Z</time>
      </trkpt>
      <trkpt lat="45.34337" lon="5.8674">
        <ele>1379</ele>
        <time>2015-02-15T11:38:31.100Z</time>
      </trkpt>
      <trkpt lat="45.34356" lon="5.86707">
        <ele>1388</ele>
        <time>2015-02-15T11:39:31.100Z</time>
      </trkpt>
      <trkpt lat="45.34396" lon="5.8676">
        <ele>1399</ele>
        <time>2015-02-15T11:40:31.100Z</time>
      </trkpt>
      <trkpt lat="45.34365" lon="5.8679">
        <ele>1409</ele>
        <time>2015-02-15T11:41:31.100Z</time>
      </trkpt>
      <trkpt lat="45.34328" lon="5.86838">
        <ele>1422</ele>
        <time>2015-02-15T11:42:31.100Z</time>
      </trkpt>
      <trkpt lat="45.34324" lon="5.86858">
        <ele>1426</ele>
        <time>2015-02-15T11:43:31.100Z</time>
      </trkpt>
      <trkpt lat="45.34297" lon="5.86915">
        <ele>1441</ele>
        <time>2015-02-15T11:44:31.100Z</time>
      </trkpt>
      <trkpt lat="45.34333" lon="5.86921">
        <ele>1453</ele>
        <time>2015-02-15T11:45:32.460Z</time>
      </trkpt>
      <trkpt lat="45.34336" lon="5.86927">
        <ele>1454</ele>
        <time>2015-02-15T11:46:31.100Z</time>
      </trkpt>
      <trkpt lat="45.34314" lon="5.86876">
        <ele>1434</ele>
        <time>2015-02-15T11:47:33.340Z</time>
      </trkpt>
      <trkpt lat="45.34309" lon="5.86887">
        <ele>1434</ele>
        <time>2015-02-15T11:48:31.100Z</time>
      </trkpt>
      <trkpt lat="45.34319" lon="5.86925">
        <ele>1447</ele>
        <time>2015-02-15T11:49:31.100Z</time>
      </trkpt>
      <trkpt lat="45.34332" lon="5.86933">
        <ele>1455</ele>
        <time>2015-02-15T11:50:34.350Z</time>
      </trkpt>
      <trkpt lat="45.34353" lon="5.86939">
        <ele>1467</ele>
        <time>2015-02-15T11:51:31.100Z</time>
      </trkpt>
      <trkpt lat="45.34373" lon="5.86952">
        <ele>1473</ele>
        <time>2015-02-15T11:52:33.340Z</time>
      </trkpt>
      <trkpt lat="45.34365" lon="5.86976">
        <ele>1480</ele>
        <time>2015-02-15T11:53:34.360Z</time>
      </trkpt>
      <trkpt lat="45.34368" lon="5.86962">
        <ele>1483</ele>
        <time>2015-02-15T11:54:31.100Z</time>
      </trkpt>
      <trkpt lat="45.34404" lon="5.86961">
        <ele>1492</ele>
        <time>2015-02-15T11:55:31.100Z</time>
      </trkpt>
      <trkpt lat="45.34426" lon="5.86965">
        <ele>1498</ele>
        <time>2015-02-15T11:56:31.100Z</time>
      </trkpt>
      <trkpt lat="45.34419" lon="5.86982">
        <ele>1502</ele>
        <time>2015-02-15T11:57:31.100Z</time>
      </trkpt>
      <trkpt lat="45.3442" lon="5.86988">
        <ele>1511</ele>
        <time>2015-02-15T11:58:31.100Z</time>
      </trkpt>
      <trkpt lat="45.3444" lon="5.86986">
        <ele>1519</ele>
        <time>2015-02-15T11:59:31.100Z</time>
      </trkpt>
      <trkpt lat="45.34445" lon="5.87012">
        <ele>1521</ele>
        <time>2015-02-15T12:00:31.100Z</time>
      </trkpt>
      <trkpt lat="45.34437" lon="5.87028">
        <ele>1528</ele>
        <time>2015-02-15T12:01:31.100Z</time>
      </trkpt>
      <trkpt lat="45.34472" lon="5.87041">
        <ele>1537</ele>
        <time>2015-02-15T12:02:31.100Z</time>
      </trkpt>
      <trkpt lat="45.34457" lon="5.87057">
        <ele>1545</ele>
        <time>2015-02-15T12:03:31.100Z</time>
      </trkpt>
      <trkpt lat="45.34472" lon="5.87072">
        <ele>1553</ele>
        <time>2015-02-15T12:04:31.100Z</time>
      </trkpt>
      <trkpt lat="45.34474" lon="5.8709">
        <ele>1560</ele>
        <time>2015-02-15T12:05:31.100Z</time>
      </trkpt>
      <trkpt lat="45.34487" lon="5.87094">
        <ele>1565</ele>
        <time>2015-02-15T12:06:31.100Z</time>
      </trkpt>
      <trkpt lat="45.34482" lon="5.87112">
        <ele>1572</ele>
        <time>2015-02-15T12:07:31.100Z</time>
      </trkpt>
      <trkpt lat="45.34482" lon="5.87119">
        <ele>1573</ele>
        <time>2015-02-15T12:08:31.100Z</time>
      </trkpt>
      <trkpt lat="45.34492" lon="5.87118">
        <ele>1579</ele>
        <time>2015-02-15T12:09:31.100Z</time>
      </trkpt>
      <trkpt lat="45.34492" lon="5.8714">
        <ele>1585</ele>
        <time>2015-02-15T12:10:31.100Z</time>
      </trkpt>
      <trkpt lat="45.3452" lon="5.87163">
        <ele>1600.8100096</ele>
        <time>2015-02-15T12:11:34.360Z</time>
      </trkpt>
      <trkpt lat="45.34499" lon="5.87182">
        <ele>1616</ele>
        <time>2015-02-15T12:12:31.100Z</time>
      </trkpt>
      <trkpt lat="45.34492" lon="5.87192">
        <ele>1618</ele>
        <time>2015-02-15T12:13:31.100Z</time>
      </trkpt>
      <trkpt lat="45.34484" lon="5.87201">
        <ele>1621</ele>
        <time>2015-02-15T12:14:31.100Z</time>
      </trkpt>
      <trkpt lat="45.34479" lon="5.87208">
        <ele>1623</ele>
        <time>2015-02-15T12:15:31.100Z</time>
      </trkpt>
      <trkpt lat="45.34484" lon="5.8721">
        <ele>1623</ele>
        <time>2015-02-15T12:16:31.100Z</time>
      </trkpt>
      <trkpt lat="45.34492" lon="5.872">
        <ele>1623</ele>
        <time>2015-02-15T12:17:31.100Z</time>
      </trkpt>
      <trkpt lat="45.34491" lon="5.87201">
        <ele>1622</ele>
        <time>2015-02-15T12:18:31.100Z</time>
      </trkpt>
      <trkpt lat="45.34464" lon="5.87229">
        <ele>1630</ele>
        <time>2015-02-15T12:19:31.100Z</time>
      </trkpt>
      <trkpt lat="45.34446" lon="5.87254">
        <ele>1634</ele>
        <time>2015-02-15T12:20:31.100Z</time>
      </trkpt>
      <trkpt lat="45.34459" lon="5.87242">
        <ele>1634</ele>
        <time>2015-02-15T12:21:31.100Z</time>
      </trkpt>
      <trkpt lat="45.34467" lon="5.87248">
        <ele>1638</ele>
        <time>2015-02-15T12:22:31.100Z</time>
      </trkpt>
      <trkpt lat="45.34481" lon="5.87269">
        <ele>1644</ele>
        <time>2015-02-15T12:23:31.100Z</time>
      </trkpt>
      <trkpt lat="45.3446" lon="5.87265">
        <ele>1646</ele>
        <time>2015-02-15T12:24:31.100Z</time>
      </trkpt>
      <trkpt lat="45.34478" lon="5.87229">
        <ele>1651</ele>
        <time>2015-02-15T12:25:31.100Z</time>
      </trkpt>
      <trkpt lat="45.34477" lon="5.87262">
        <ele>1655</ele>
        <time>2015-02-15T12:26:31.100Z</time>
      </trkpt>
      <trkpt lat="45.34454" lon="5.87289">
        <ele>1660</ele>
        <time>2015-02-15T12:27:34.360Z</time>
      </trkpt>
      <trkpt lat="45.3443" lon="5.8736">
        <ele>1664</ele>
        <time>2015-02-15T12:28:31.100Z</time>
      </trkpt>
      <trkpt lat="45.34448" lon="5.87301">
        <ele>1664</ele>
        <time>2015-02-15T12:29:34.360Z</time>
      </trkpt>
      <trkpt lat="45.3445" lon="5.87271">
        <ele>1661</ele>
        <time>2015-02-15T12:30:32.100Z</time>
      </trkpt>
      <trkpt lat="45.34457" lon="5.87285">
        <ele>1658</ele>
        <time>2015-02-15T12:31:35.360Z</time>
      </trkpt>
      <trkpt lat="45.34457" lon="5.87289">
        <ele>1658</ele>
        <time>2015-02-15T12:32:33.230Z</time>
      </trkpt>
      <trkpt lat="45.34456" lon="5.87274">
        <ele>1658</ele>
        <time>2015-02-15T12:33:31.100Z</time>
      </trkpt>
      <trkpt lat="45.34459" lon="5.87274">
        <ele>1657</ele>
        <time>2015-02-15T12:34:31.100Z</time>
      </trkpt>
      <trkpt lat="45.34468" lon="5.87249">
        <ele>1660</ele>
        <time>2015-02-15T12:35:31.100Z</time>
      </trkpt>
      <trkpt lat="45.34447" lon="5.87298">
        <ele>1664</ele>
        <time>2015-02-15T12:36:34.360Z</time>
      </trkpt>
      <trkpt lat="45.34444" lon="5.8731">
        <ele>1667</ele>
        <time>2015-02-15T12:37:38.460Z</time>
      </trkpt>
      <trkpt lat="45.34452" lon="5.87308">
        <ele>1669</ele>
        <time>2015-02-15T12:38:31.100Z</time>
      </trkpt>
      <trkpt lat="45.34449" lon="5.87295">
        <ele>1672</ele>
        <time>2015-02-15T12:39:32.100Z</time>
      </trkpt>
      <trkpt lat="45.34451" lon="5.87307">
        <ele>1675</ele>
        <time>2015-02-15T12:40:31.100Z</time>
      </trkpt>
      <trkpt lat="45.34448" lon="5.87311">
        <ele>1677</ele>
        <time>2015-02-15T12:41:31.100Z</time>
      </trkpt>
      <trkpt lat="45.34448" lon="5.87317">
        <ele>1680</ele>
        <time>2015-02-15T12:42:56.360Z</time>
      </trkpt>
      <trkpt lat="45.34446" lon="5.87333">
        <ele>1682</ele>
        <time>2015-02-15T12:43:33.110Z</time>
      </trkpt>
      <trkpt lat="45.3445" lon="5.87338">
        <ele>1693</ele>
        <time>2015-02-15T12:44:36.360Z</time>
      </trkpt>
      <trkpt lat="45.34443" lon="5.87352">
        <ele>1701</ele>
        <time>2015-02-15T12:45:34.360Z</time>
      </trkpt>
      <trkpt lat="45.34445" lon="5.87358">
        <ele>1700.2700032</ele>
        <time>2015-02-15T12:46:34.360Z</time>
      </trkpt>
      <trkpt lat="45.34458" lon="5.8734">
        <ele>1700</ele>
        <time>2015-02-15T12:47:31.100Z</time>
      </trkpt>
      <trkpt lat="45.34447" lon="5.87357">
        <ele>1703</ele>
        <time>2015-02-15T12:48:35.360Z</time>
      </trkpt>
      <trkpt lat="45.34447" lon="5.87352">
        <ele>1705</ele>
        <time>2015-02-15T12:49:31.100Z</time>
      </trkpt>
      <trkpt lat="45.34444" lon="5.87367">
        <ele>1713</ele>
        <time>2015-02-15T12:50:31.100Z</time>
      </trkpt>
      <trkpt lat="45.34445" lon="5.87375">
        <ele>1717</ele>
        <time>2015-02-15T12:51:36.360Z</time>
      </trkpt>
      <trkpt lat="45.34448" lon="5.87372">
        <ele>1718</ele>
        <time>2015-02-15T12:52:31.100Z</time>
      </trkpt>
      <trkpt lat="45.34452" lon="5.8738">
        <ele>1719</ele>
        <time>2015-02-15T12:53:33.410Z</time>
      </trkpt>
      <trkpt lat="45.34451" lon="5.87372">
        <ele>1720</ele>
        <time>2015-02-15T12:54:30.960Z</time>
      </trkpt>
      <trkpt lat="45.34454" lon="5.8738">
        <ele>1725</ele>
        <time>2015-02-15T12:55:31.100Z</time>
      </trkpt>
      <trkpt lat="45.34463" lon="5.87401">
        <ele>1734</ele>
        <time>2015-02-15T12:56:31.100Z</time>
      </trkpt>
      <trkpt lat="45.34464" lon="5.87409">
        <ele>1736</ele>
        <time>2015-02-15T12:57:31.100Z</time>
      </trkpt>
      <trkpt lat="45.34461" lon="5.87402">
        <ele>1736</ele>
        <time>2015-02-15T12:58:31.100Z</time>
      </trkpt>
      <trkpt lat="45.34467" lon="5.87402">
        <ele>1735</ele>
        <time>2015-02-15T12:59:31.100Z</time>
      </trkpt>
      <trkpt lat="45.34492" lon="5.87407">
        <ele>1743</ele>
        <time>2015-02-15T13:00:31.100Z</time>
      </trkpt>
      <trkpt lat="45.34491" lon="5.87404">
        <ele>1750</ele>
        <time>2015-02-15T13:01:31.110Z</time>
      </trkpt>
      <trkpt lat="45.34512" lon="5.87398">
        <ele>1753</ele>
        <time>2015-02-15T13:02:31.100Z</time>
      </trkpt>
      <trkpt lat="45.34543" lon="5.87391">
        <ele>1762</ele>
        <time>2015-02-15T13:03:32.460Z</time>
      </trkpt>
      <trkpt lat="45.34547" lon="5.87392">
        <ele>1763</ele>
        <time>2015-02-15T13:04:31.100Z</time>
      </trkpt>
      <trkpt lat="45.34526" lon="5.87369">
        <ele>1759</ele>
        <time>2015-02-15T13:05:31.100Z</time>
      </trkpt>
      <trkpt lat="45.34549" lon="5.87384">
        <ele>1760</ele>
        <time>2015-02-15T13:06:31.100Z</time>
      </trkpt>
      <trkpt lat="45.34551" lon="5.87388">
        <ele>1760</ele>
        <time>2015-02-15T13:07:31.100Z</time>
      </trkpt>
      <trkpt lat="45.34585" lon="5.87368">
        <ele>1757</ele>
        <time>2015-02-15T13:08:31.460Z</time>
      </trkpt>
      <trkpt lat="45.3462" lon="5.87358">
        <ele>1760</ele>
        <time>2015-02-15T13:09:31.100Z</time>
      </trkpt>
      <trkpt lat="45.34628" lon="5.8737">
        <ele>1752</ele>
        <time>2015-02-15T13:10:31.100Z</time>
      </trkpt>
      <trkpt lat="45.34607" lon="5.87392">
        <ele>1742</ele>
        <time>2015-02-15T13:11:38.360Z</time>
      </trkpt>
      <trkpt lat="45.34618" lon="5.87349">
        <ele>1742</ele>
        <time>2015-02-15T13:12:33.110Z</time>
      </trkpt>
      <trkpt lat="45.34628" lon="5.87307">
        <ele>1741</ele>
        <time>2015-02-15T13:13:31.100Z</time>
      </trkpt>
      <trkpt lat="45.34609" lon="5.87377">
        <ele>1743</ele>
        <time>2015-02-15T13:14:35.460Z</time>
      </trkpt>
      <trkpt lat="45.34588" lon="5.87479">
        <ele>1742</ele>
        <time>2015-02-15T13:15:31.100Z</time>
      </trkpt>
      <trkpt lat="45.34574" lon="5.87493">
        <ele>1741</ele>
        <time>2015-02-15T13:16:31.100Z</time>
      </trkpt>
      <trkpt lat="45.3461" lon="5.87374">
        <ele>1743</ele>
        <time>2015-02-15T13:17:36.460Z</time>
      </trkpt>
      <trkpt lat="45.34611" lon="5.87359">
        <ele>1743</ele>
        <time>2015-02-15T13:18:31.100Z</time>
      </trkpt>
      <trkpt lat="45.34634" lon="5.87288">
        <ele>1742</ele>
        <time>2015-02-15T13:19:31.100Z</time>
      </trkpt>
      <trkpt lat="45.34606" lon="5.87376">
        <ele>1743</ele>
        <time>2015-02-15T13:20:39.440Z</time>
      </trkpt>
      <trkpt lat="45.3464" lon="5.87234">
        <ele>1746</ele>
        <time>2015-02-15T13:21:31.100Z</time>
      </trkpt>
      <trkpt lat="45.34589" lon="5.87446">
        <ele>1746</ele>
        <time>2015-02-15T13:22:31.100Z</time>
      </trkpt>
      <trkpt lat="45.34608" lon="5.87395">
        <ele>1744</ele>
        <time>2015-02-15T13:23:33.910Z</time>
      </trkpt>
      <trkpt lat="45.34601" lon="5.87397">
        <ele>1746</ele>
        <time>2015-02-15T13:24:36.360Z</time>
      </trkpt>
      <trkpt lat="45.34614" lon="5.8735">
        <ele>1746</ele>
        <time>2015-02-15T13:25:31.100Z</time>
      </trkpt>
      <trkpt lat="45.34573" lon="5.87453">
        <ele>1746</ele>
        <time>2015-02-15T13:26:32.100Z</time>
      </trkpt>
      <trkpt lat="45.34609" lon="5.87389">
        <ele>1746</ele>
        <time>2015-02-15T13:27:35.460Z</time>
      </trkpt>
      <trkpt lat="45.34636" lon="5.87423">
        <ele>1719</ele>
        <time>2015-02-15T13:28:31.100Z</time>
      </trkpt>
      <trkpt lat="45.3462" lon="5.87425">
        <ele>1717</ele>
        <time>2015-02-15T13:29:34.360Z</time>
      </trkpt>
      <trkpt lat="45.3462" lon="5.87485">
        <ele>1684.8899712</ele>
        <time>2015-02-15T13:30:46.460Z</time>
      </trkpt>
      <trkpt lat="45.34628" lon="5.87552">
        <ele>1653</ele>
        <time>2015-02-15T13:31:31.100Z</time>
      </trkpt>
      <trkpt lat="45.34604" lon="5.87583">
        <ele>1623</ele>
        <time>2015-02-15T13:32:31.100Z</time>
      </trkpt>
      <trkpt lat="45.34585" lon="5.87597">
        <ele>1614</ele>
        <time>2015-02-15T13:33:33.910Z</time>
      </trkpt>
      <trkpt lat="45.34557" lon="5.87674">
        <ele>1573</ele>
        <time>2015-02-15T13:34:31.100Z</time>
      </trkpt>
      <trkpt lat="45.34449" lon="5.87759">
        <ele>1548</ele>
        <time>2015-02-15T13:35:31.100Z</time>
      </trkpt>
      <trkpt lat="45.34418" lon="5.87801">
        <ele>1540</ele>
        <time>2015-02-15T13:36:31.100Z</time>
      </trkpt>
      <trkpt lat="45.34423" lon="5.8779">
        <ele>1539</ele>
        <time>2015-02-15T13:37:31.100Z</time>
      </trkpt>
      <trkpt lat="45.34422" lon="5.87784">
        <ele>1539.2700032</ele>
        <time>2015-02-15T13:38:34.360Z</time>
      </trkpt>
      <trkpt lat="45.34416" lon="5.8779">
        <ele>1540</ele>
        <time>2015-02-15T13:39:33.310Z</time>
      </trkpt>
      <trkpt lat="45.34413" lon="5.87798">
        <ele>1541</ele>
        <time>2015-02-15T13:40:38.360Z</time>
      </trkpt>
      <trkpt lat="45.34413" lon="5.87761">
        <ele>1544</ele>
        <time>2015-02-15T13:41:31.100Z</time>
      </trkpt>
      <trkpt lat="45.34406" lon="5.8779">
        <ele>1544</ele>
        <time>2015-02-15T13:42:33.110Z</time>
      </trkpt>
      <trkpt lat="45.34412" lon="5.87782">
        <ele>1544</ele>
        <time>2015-02-15T13:43:31.100Z</time>
      </trkpt>
      <trkpt lat="45.34396" lon="5.87781">
        <ele>1548.8019820802</ele>
        <time>2015-02-15T13:44:34.360Z</time>
      </trkpt>
      <trkpt lat="45.34364" lon="5.87805">
        <ele>1557</ele>
        <time>2015-02-15T13:45:31.100Z</time>
      </trkpt>
      <trkpt lat="45.34357" lon="5.87765">
        <ele>1564</ele>
        <time>2015-02-15T13:46:31.100Z</time>
      </trkpt>
      <trkpt lat="45.34363" lon="5.87736">
        <ele>1574.3700096</ele>
        <time>2015-02-15T13:47:34.460Z</time>
      </trkpt>
      <trkpt lat="45.34355" lon="5.87724">
        <ele>1581</ele>
        <time>2015-02-15T13:48:33.110Z</time>
      </trkpt>
      <trkpt lat="45.34361" lon="5.87706">
        <ele>1590</ele>
        <time>2015-02-15T13:49:31.100Z</time>
      </trkpt>
      <trkpt lat="45.34355" lon="5.87693">
        <ele>1598</ele>
        <time>2015-02-15T13:50:31.100Z</time>
      </trkpt>
      <trkpt lat="45.34363" lon="5.87657">
        <ele>1606</ele>
        <time>2015-02-15T13:51:34.360Z</time>
      </trkpt>
      <trkpt lat="45.34359" lon="5.87646">
        <ele>1612</ele>
        <time>2015-02-15T13:52:31.100Z</time>
      </trkpt>
      <trkpt lat="45.34361" lon="5.87645">
        <ele>1615</ele>
        <time>2015-02-15T13:53:31.100Z</time>
      </trkpt>
      <trkpt lat="45.34353" lon="5.87641">
        <ele>1619</ele>
        <time>2015-02-15T13:54:30.860Z</time>
      </trkpt>
      <trkpt lat="45.34379" lon="5.87598">
        <ele>1624</ele>
        <time>2015-02-15T13:55:31.100Z</time>
      </trkpt>
      <trkpt lat="45.34394" lon="5.87582">
        <ele>1630</ele>
        <time>2015-02-15T13:56:31.100Z</time>
      </trkpt>
      <trkpt lat="45.34383" lon="5.87584">
        <ele>1633.7000064</ele>
        <time>2015-02-15T13:57:34.440Z</time>
      </trkpt>
      <trkpt lat="45.34382" lon="5.87581">
        <ele>1637</ele>
        <time>2015-02-15T13:58:31.100Z</time>
      </trkpt>
      <trkpt lat="45.34371" lon="5.87585">
        <ele>1641</ele>
        <time>2015-02-15T13:59:31.100Z</time>
      </trkpt>
      <trkpt lat="45.34432" lon="5.87536">
        <ele>1642</ele>
        <time>2015-02-15T14:00:33.110Z</time>
      </trkpt>
      <trkpt lat="45.34436" lon="5.87531">
        <ele>1641</ele>
        <time>2015-02-15T14:01:32.860Z</time>
      </trkpt>
      <trkpt lat="45.34425" lon="5.87548">
        <ele>1642</ele>
        <time>2015-02-15T14:02:33.110Z</time>
      </trkpt>
      <trkpt lat="45.34422" lon="5.87533">
        <ele>1643</ele>
        <time>2015-02-15T14:03:33.110Z</time>
      </trkpt>
      <trkpt lat="45.34442" lon="5.87586">
        <ele>1645</ele>
        <time>2015-02-15T14:04:45.360Z</time>
      </trkpt>
      <trkpt lat="45.34415" lon="5.87537">
        <ele>1647</ele>
        <time>2015-02-15T14:05:33.110Z</time>
      </trkpt>
      <trkpt lat="45.3441" lon="5.8755">
        <ele>1645</ele>
        <time>2015-02-15T14:06:33.110Z</time>
      </trkpt>
      <trkpt lat="45.3441" lon="5.87535">
        <ele>1645</ele>
        <time>2015-02-15T14:07:33.110Z</time>
      </trkpt>
      <trkpt lat="45.3441" lon="5.87533">
        <ele>1648</ele>
        <time>2015-02-15T14:08:32.850Z</time>
      </trkpt>
      <trkpt lat="45.34412" lon="5.87532">
        <ele>1652</ele>
        <time>2015-02-15T14:09:32.860Z</time>
      </trkpt>
      <trkpt lat="45.34396" lon="5.87541">
        <ele>1653</ele>
        <time>2015-02-15T14:10:32.850Z</time>
      </trkpt>
      <trkpt lat="45.34405" lon="5.87527">
        <ele>1656</ele>
        <time>2015-02-15T14:11:32.850Z</time>
      </trkpt>
      <trkpt lat="45.34332" lon="5.87558">
        <ele>1655</ele>
        <time>2015-02-15T14:12:32.850Z</time>
      </trkpt>
      <trkpt lat="45.34391" lon="5.87554">
        <ele>1655</ele>
        <time>2015-02-15T14:13:32.850Z</time>
      </trkpt>
      <trkpt lat="45.34404" lon="5.87528">
        <ele>1655</ele>
        <time>2015-02-15T14:14:32.850Z</time>
      </trkpt>
      <trkpt lat="45.34376" lon="5.8755">
        <ele>1654</ele>
        <time>2015-02-15T14:15:32.850Z</time>
      </trkpt>
      <trkpt lat="45.34403" lon="5.87527">
        <ele>1656</ele>
        <time>2015-02-15T14:16:32.860Z</time>
      </trkpt>
      <trkpt lat="45.34412" lon="5.87501">
        <ele>1656</ele>
        <time>2015-02-15T14:17:32.850Z</time>
      </trkpt>
      <trkpt lat="45.34424" lon="5.87507">
        <ele>1656</ele>
        <time>2015-02-15T14:18:32.850Z</time>
      </trkpt>
      <trkpt lat="45.34405" lon="5.87522">
        <ele>1654</ele>
        <time>2015-02-15T14:19:32.850Z</time>
      </trkpt>
      <trkpt lat="45.34405" lon="5.87502">
        <ele>1655</ele>
        <time>2015-02-15T14:20:32.850Z</time>
      </trkpt>
      <trkpt lat="45.34385" lon="5.87551">
        <ele>1654</ele>
        <time>2015-02-15T14:21:32.850Z</time>
      </trkpt>
      <trkpt lat="45.34388" lon="5.87521">
        <ele>1654</ele>
        <time>2015-02-15T14:22:32.860Z</time>
      </trkpt>
      <trkpt lat="45.34408" lon="5.87508">
        <ele>1655</ele>
        <time>2015-02-15T14:23:32.850Z</time>
      </trkpt>
      <trkpt lat="45.34414" lon="5.8753">
        <ele>1656</ele>
        <time>2015-02-15T14:24:43.440Z</time>
      </trkpt>
      <trkpt lat="45.34341" lon="5.87589">
        <ele>1656</ele>
        <time>2015-02-15T14:25:32.850Z</time>
      </trkpt>
      <trkpt lat="45.34328" lon="5.87573">
        <ele>1648</ele>
        <time>2015-02-15T14:26:32.850Z</time>
      </trkpt>
      <trkpt lat="45.34219" lon="5.87602">
        <ele>1609</ele>
        <time>2015-02-15T14:27:32.850Z</time>
      </trkpt>
      <trkpt lat="45.34275" lon="5.87429">
        <ele>1567</ele>
        <time>2015-02-15T14:28:32.850Z</time>
      </trkpt>
      <trkpt lat="45.34237" lon="5.87376">
        <ele>1531</ele>
        <time>2015-02-15T14:29:32.850Z</time>
      </trkpt>
      <trkpt lat="45.34212" lon="5.87332">
        <ele>1500</ele>
        <time>2015-02-15T14:30:32.850Z</time>
      </trkpt>
      <trkpt lat="45.3421" lon="5.87305">
        <ele>1485</ele>
        <time>2015-02-15T14:31:32.850Z</time>
      </trkpt>
      <trkpt lat="45.34159" lon="5.87307">
        <ele>1459.24</ele>
        <time>2015-02-15T14:32:30.850Z</time>
      </trkpt>
      <trkpt lat="45.34116" lon="5.87259">
        <ele>1422</ele>
        <time>2015-02-15T14:34:40.350Z</time>
      </trkpt>
      <trkpt lat="45.341" lon="5.87178">
        <ele>1386</ele>
        <time>2015-02-15T14:35:40.850Z</time>
      </trkpt>
      <trkpt lat="45.34126" lon="5.8719">
        <ele>1380</ele>
        <time>2015-02-15T14:36:40.850Z</time>
      </trkpt>
      <trkpt lat="45.3412" lon="5.87185">
        <ele>1379</ele>
        <time>2015-02-15T14:37:40.950Z</time>
      </trkpt>
      <trkpt lat="45.34119" lon="5.87192">
        <ele>1380</ele>
        <time>2015-02-15T14:38:40.950Z</time>
      </trkpt>
      <trkpt lat="45.34125" lon="5.87193">
        <ele>1380</ele>
        <time>2015-02-15T14:39:41.950Z</time>
      </trkpt>
      <trkpt lat="45.34124" lon="5.87199">
        <ele>1378</ele>
        <time>2015-02-15T14:40:42.850Z</time>
      </trkpt>
      <trkpt lat="45.34126" lon="5.87188">
        <ele>1380</ele>
        <time>2015-02-15T14:41:34.350Z</time>
      </trkpt>
      <trkpt lat="45.34126" lon="5.87188">
        <ele>1381</ele>
        <time>2015-02-15T14:42:32.850Z</time>
      </trkpt>
      <trkpt lat="45.34123" lon="5.87195">
        <ele>1380</ele>
        <time>2015-02-15T14:43:38.450Z</time>
      </trkpt>
      <trkpt lat="45.34124" lon="5.872">
        <ele>1380</ele>
        <time>2015-02-15T14:44:32.850Z</time>
      </trkpt>
      <trkpt lat="45.34127" lon="5.87202">
        <ele>1379</ele>
        <time>2015-02-15T14:45:35.450Z</time>
      </trkpt>
      <trkpt lat="45.34125" lon="5.87188">
        <ele>1380</ele>
        <time>2015-02-15T14:46:39.450Z</time>
      </trkpt>
      <trkpt lat="45.34124" lon="5.87155">
        <ele>1379</ele>
        <time>2015-02-15T14:47:42.350Z</time>
      </trkpt>
      <trkpt lat="45.34115" lon="5.87177">
        <ele>1380</ele>
        <time>2015-02-15T14:48:32.850Z</time>
      </trkpt>
      <trkpt lat="45.34121" lon="5.87198">
        <ele>1380</ele>
        <time>2015-02-15T14:49:34.350Z</time>
      </trkpt>
      <trkpt lat="45.34122" lon="5.87196">
        <ele>1380</ele>
        <time>2015-02-15T14:50:37.350Z</time>
      </trkpt>
      <trkpt lat="45.34128" lon="5.87189">
        <ele>1380</ele>
        <time>2015-02-15T14:51:32.850Z</time>
      </trkpt>
      <trkpt lat="45.34186" lon="5.86934">
        <ele>1376</ele>
        <time>2015-02-15T14:59:00.350Z</time>
      </trkpt>
      <trkpt lat="45.34167" lon="5.86864">
        <ele>1371</ele>
        <time>2015-02-15T15:00:00.810Z</time>
      </trkpt>
      <trkpt lat="45.34166" lon="5.86854">
        <ele>1371</ele>
        <time>2015-02-15T15:01:00.950Z</time>
      </trkpt>
      <trkpt lat="45.34163" lon="5.86851">
        <ele>1371</ele>
        <time>2015-02-15T15:02:01.850Z</time>
      </trkpt>
      <trkpt lat="45.34165" lon="5.86853">
        <ele>1371</ele>
        <time>2015-02-15T15:03:01.850Z</time>
      </trkpt>
      <trkpt lat="45.34166" lon="5.86858">
        <ele>1371</ele>
        <time>2015-02-15T15:04:01.850Z</time>
      </trkpt>
      <trkpt lat="45.34164" lon="5.86855">
        <ele>1372</ele>
        <time>2015-02-15T15:05:01.950Z</time>
      </trkpt>
      <trkpt lat="45.34179" lon="5.86793">
        <ele>1369</ele>
        <time>2015-02-15T15:06:02.950Z</time>
      </trkpt>
      <trkpt lat="45.34226" lon="5.86698">
        <ele>1354</ele>
        <time>2015-02-15T15:07:02.950Z</time>
      </trkpt>
      <trkpt lat="45.34378" lon="5.86519">
        <ele>1315.76</ele>
        <time>2015-02-15T15:08:03.850Z</time>
      </trkpt>
      <trkpt lat="45.34561" lon="5.86481">
        <ele>1267.24</ele>
        <time>2015-02-15T15:09:03.850Z</time>
      </trkpt>
      <trkpt lat="45.34602" lon="5.86359">
        <ele>1220.48</ele>
        <time>2015-02-15T15:10:03.850Z</time>
      </trkpt>
      <trkpt lat="45.34569" lon="5.86275">
        <ele>1199</ele>
        <time>2015-02-15T15:11:03.950Z</time>
      </trkpt>
      <trkpt lat="45.34529" lon="5.86226">
        <ele>1175</ele>
        <time>2015-02-15T15:11:37.350Z</time>
      </trkpt>
      <trkpt lat="45.34464" lon="5.86113">
        <ele>1142.7614641192</ele>
        <time>2015-02-15T15:12:38.350Z</time>
      </trkpt>
      <trkpt lat="45.34435" lon="5.86067">
        <ele>1135</ele>
        <time>2015-02-15T15:13:32.850Z</time>
      </trkpt>
      <trkpt lat="45.34401" lon="5.86061">
        <ele>1121</ele>
        <time>2015-02-15T15:14:35.450Z</time>
      </trkpt>
      <trkpt lat="45.34356" lon="5.85997">
        <ele>1100.7399936</ele>
        <time>2015-02-15T15:15:37.350Z</time>
      </trkpt>
      <trkpt lat="45.34296" lon="5.85981">
        <ele>1093</ele>
        <time>2015-02-15T15:16:40.450Z</time>
      </trkpt>
      <trkpt lat="45.33746" lon="5.85867">
        <ele>966</ele>
        <time>2015-02-15T15:19:49.450Z</time>
      </trkpt>
      <trkpt lat="45.33473" lon="5.85841">
        <ele>921</ele>
        <time>2015-02-15T15:20:49.930Z</time>
      </trkpt>
      <trkpt lat="45.3344" lon="5.85817">
        <ele>912</ele>
        <time>2015-02-15T15:21:49.950Z</time>
      </trkpt>
      <trkpt lat="45.33414" lon="5.85748">
        <ele>905</ele>
        <time>2015-02-15T15:22:50.900Z</time>
      </trkpt>
      <trkpt lat="45.33367" lon="5.85699">
        <ele>901</ele>
        <time>2015-02-15T15:23:51.850Z</time>
      </trkpt>
      <trkpt lat="45.33373" lon="5.85684">
        <ele>894</ele>
        <time>2015-02-15T15:24:53.450Z</time>
      </trkpt>
      <trkpt lat="45.33398" lon="5.85692">
        <ele>892</ele>
        <time>2015-02-15T15:25:36.350Z</time>
      </trkpt>
      <trkpt lat="45.33288" lon="5.85616">
        <ele>884</ele>
        <time>2015-02-15T15:26:41.330Z</time>
      </trkpt>
      <trkpt lat="45.33116" lon="5.8548">
        <ele>852</ele>
        <time>2015-02-15T15:27:36.450Z</time>
      </trkpt>
      <trkpt lat="45.33069" lon="5.85235">
        <ele>824</ele>
        <time>2015-02-15T15:28:39.450Z</time>
      </trkpt>
      <trkpt lat="45.33073" lon="5.85155">
        <ele>825</ele>
        <time>2015-02-15T15:29:33.300Z</time>
      </trkpt>
      <trkpt lat="45.33076" lon="5.85143">
        <ele>824</ele>
        <time>2015-02-15T15:30:33.400Z</time>
      </trkpt>
      <trkpt lat="45.33029" lon="5.84827">
        <ele>778</ele>
        <time>2015-02-15T15:31:35.350Z</time>
      </trkpt>
      <trkpt lat="45.33087" lon="5.84851">
        <ele>754</ele>
        <time>2015-02-15T15:32:36.350Z</time>
      </trkpt>
    </trkseg>
  </trk>
</gpx>